Time;durP1;ratioP1;P1;durP2;ratioP2;P2;SDS_P1;SDS_P2;PMS_P1;PMS_P2;Temp;Humidity;BMP_temperature;BMP_pressure;BME280_temperature;BME280_humidity;BME280_pressure;Samples;Min_cycle;Max_cycle;Signal;HPM_P1;HPM_P2
2021/08/04 15:23:15;;;;;;;6.37;1.90;;;;;;;;;;481847;51;936680;-66
2021/08/04 15:23:47;;;;;;;5.40;1.80;;;;;;;;;;488738;52;935820;-67
2021/08/04 15:24:20;;;;;;;9.43;2.25;;;;;;;;;;478052;52;935901;-67
2021/08/04 15:24:52;;;;;;;12.73;1.50;;;;;;;;;;478957;44;936095;-67
2021/08/04 15:25:24;;;;;;;7.50;2.08;;;;;;;;;;477709;44;936033;-67
2021/08/04 15:25:55;;;;;;;6.12;2.00;;;;;;;;;;479047;52;935742;-67
2021/08/04 15:26:27;;;;;;;9.82;2.20;;;;;;;;;;480739;52;936641;-67
2021/08/04 15:27:00;;;;;;;7.97;2.00;;;;;;;;;;478263;52;935883;-67
2021/08/04 15:27:34;;;;;;;9.15;2.10;;;;;;;;;;478739;52;935926;-67
2021/08/04 15:28:06;;;;;;;9.98;2.10;;;;;;;;;;477738;44;935745;-67
2021/08/04 15:28:37;;;;;;;4.72;1.95;;;;;;;;;;477330;52;935828;-67
2021/08/04 15:29:08;;;;;;;6.70;2.10;;;;;;;;;;477671;52;936434;-67
2021/08/04 15:29:40;;;;;;;7.25;2.10;;;;;;;;;;478226;44;935768;-66
2021/08/04 15:30:12;;;;;;;6.68;2.25;;;;;;;;;;480661;44;935760;-66
2021/08/04 15:30:43;;;;;;;3.72;1.77;;;;;;;;;;479608;44;936303;-67
2021/08/04 15:31:15;;;;;;;7.97;2.20;;;;;;;;;;480226;52;936184;-68
2021/08/04 15:31:46;;;;;;;8.20;1.92;;;;;;;;;;479909;52;935727;-68
2021/08/04 15:32:18;;;;;;;7.55;2.15;;;;;;;;;;479557;44;935712;-69
2021/08/04 15:32:49;;;;;;;6.12;1.87;;;;;;;;;;479720;52;935692;-68
2021/08/04 15:33:20;;;;;;;7.75;2.67;;;;;;;;;;479717;52;936275;-69
2021/08/04 15:33:53;;;;;;;10.52;2.20;;;;;;;;;;480644;52;935832;-68
2021/08/04 15:34:25;;;;;;;7.03;2.40;;;;;;;;;;479348;52;935779;-69
2021/08/04 15:34:56;;;;;;;5.55;1.90;;;;;;;;;;477802;52;935666;-73
2021/08/04 15:35:29;;;;;;;7.40;2.00;;;;;;;;;;478063;52;935866;-72
2021/08/04 15:36:05;;;;;;;11.40;2.42;;;;;;;;;;476392;44;935843;-77
2021/08/04 15:36:40;;;;;;;9.27;1.67;;;;;;;;;;476876;44;935815;-73
2021/08/04 15:37:15;;;;;;;11.27;2.10;;;;;;;;;;476742;52;935950;-73
2021/08/04 15:37:46;;;;;;;6.05;1.65;;;;;;;;;;476178;52;935727;-73
2021/08/04 15:38:18;;;;;;;8.60;2.40;;;;;;;;;;477358;44;935663;-72
2021/08/04 15:38:49;;;;;;;4.85;1.80;;;;;;;;;;477523;44;935693;-72
2021/08/04 15:39:21;;;;;;;10.65;2.00;;;;;;;;;;479527;52;935812;-74
2021/08/04 15:39:52;;;;;;;7.07;2.03;;;;;;;;;;480738;52;936574;-73
2021/08/04 15:40:23;;;;;;;8.68;1.90;;;;;;;;;;480801;52;935618;-73
2021/08/04 15:40:55;;;;;;;9.73;2.00;;;;;;;;;;478653;52;935775;-71
2021/08/04 15:41:26;;;;;;;5.22;1.90;;;;;;;;;;478282;52;935789;-71
2021/08/04 15:41:58;;;;;;;5.03;1.92;;;;;;;;;;478290;44;936390;-71
2021/08/04 15:42:29;;;;;;;6.18;1.92;;;;;;;;;;477457;52;935626;-71
2021/08/04 15:43:00;;;;;;;5.82;2.20;;;;;;;;;;481067;44;936229;-71
2021/08/04 15:43:36;;;;;;;6.72;1.90;;;;;;;;;;480637;44;935758;-71
2021/08/04 15:44:07;;;;;;;8.88;2.22;;;;;;;;;;479005;52;937796;-71
2021/08/04 15:44:38;;;;;;;4.95;1.90;;;;;;;;;;479139;52;935797;-70
2021/08/04 15:45:10;;;;;;;3.80;1.73;;;;;;;;;;479731;52;935789;-71
2021/08/04 15:45:42;;;;;;;5.62;1.70;;;;;;;;;;477582;44;935837;-70
2021/08/04 15:46:16;;;;;;;7.03;1.87;;;;;;;;;;478334;44;935670;-71
2021/08/04 15:46:47;;;;;;;7.43;1.85;;;;;;;;;;477600;52;936632;-71
2021/08/04 15:47:18;;;;;;;7.10;1.90;;;;;;;;;;476027;44;935897;-71
2021/08/04 15:47:50;;;;;;;5.85;2.12;;;;;;;;;;477711;52;935752;-71
2021/08/04 15:48:21;;;;;;;4.18;1.70;;;;;;;;;;477539;44;935773;-71
2021/08/04 15:48:53;;;;;;;3.62;1.60;;;;;;;;;;476746;52;936113;-71
2021/08/04 15:49:24;;;;;;;5.43;1.80;;;;;;;;;;478282;44;935827;-71
2021/08/04 15:49:56;;;;;;;7.55;2.10;;;;;;;;;;477665;44;935766;-72
2021/08/04 15:50:27;;;;;;;5.75;2.00;;;;;;;;;;478596;52;935793;-67
2021/08/04 15:50:59;;;;;;;8.50;2.20;;;;;;;;;;476440;52;935888;-67
2021/08/04 15:51:31;;;;;;;4.22;1.65;;;;;;;;;;477039;52;935683;-68
2021/08/04 15:52:02;;;;;;;6.20;2.05;;;;;;;;;;477858;44;935820;-70
2021/08/04 15:52:34;;;;;;;7.40;2.12;;;;;;;;;;475170;52;935749;-69
2021/08/04 15:53:06;;;;;;;5.90;1.70;;;;;;;;;;476574;44;936160;-70
2021/08/04 15:53:37;;;;;;;5.97;1.70;;;;;;;;;;478735;52;935815;-70
2021/08/04 15:54:09;;;;;;;6.75;2.35;;;;;;;;;;479305;44;936028;-69
2021/08/04 15:54:41;;;;;;;9.85;2.00;;;;;;;;;;479976;44;935826;-70
2021/08/04 15:55:12;;;;;;;4.30;2.08;;;;;;;;;;479768;52;936268;-70
2021/08/04 15:55:44;;;;;;;8.93;2.17;;;;;;;;;;479929;44;936846;-68
2021/08/04 15:56:16;;;;;;;7.40;2.00;;;;;;;;;;479995;44;935841;-73
2021/08/04 15:56:47;;;;;;;6.40;1.95;;;;;;;;;;477642;52;936111;-75
2021/08/04 15:57:19;;;;;;;8.25;2.08;;;;;;;;;;478818;52;935665;-74
2021/08/04 15:57:50;;;;;;;6.43;2.33;;;;;;;;;;478664;44;935666;-75
2021/08/04 15:58:22;;;;;;;8.57;2.15;;;;;;;;;;478322;44;936200;-74
2021/08/04 15:58:53;;;;;;;5.60;2.10;;;;;;;;;;476752;44;935725;-74
2021/08/04 15:59:25;;;;;;;6.03;2.40;;;;;;;;;;474461;44;935872;-74
2021/08/04 15:59:56;;;;;;;4.30;2.20;;;;;;;;;;476574;52;935821;-74
2021/08/04 16:00:28;;;;;;;8.20;2.08;;;;;;;;;;475678;52;935714;-74
2021/08/04 16:00:59;;;;;;;5.75;2.25;;;;;;;;;;476359;52;936291;-74
2021/08/04 16:01:30;;;;;;;7.93;2.37;;;;;;;;;;477761;52;935837;-69
2021/08/04 16:02:02;;;;;;;10.93;2.60;;;;;;;;;;477079;44;936198;-69
2021/08/04 16:02:34;;;;;;;7.28;2.60;;;;;;;;;;476904;44;936210;-69
2021/08/04 16:03:05;;;;;;;11.40;2.53;;;;;;;;;;478341;52;935780;-68
2021/08/04 16:03:40;;;;;;;11.88;3.25;;;;;;;;;;477524;44;935834;-69
2021/08/04 16:04:11;;;;;;;7.53;2.47;;;;;;;;;;478140;52;935723;-70
2021/08/04 16:04:42;;;;;;;6.80;2.47;;;;;;;;;;478820;44;935711;-70
2021/08/04 16:05:14;;;;;;;8.05;2.40;;;;;;;;;;477336;52;936159;-69
2021/08/04 16:05:46;;;;;;;12.77;2.92;;;;;;;;;;478024;44;935746;-75
2021/08/04 16:06:17;;;;;;;8.10;2.28;;;;;;;;;;475187;52;935962;-75
2021/08/04 16:06:52;;;;;;;4.50;1.92;;;;;;;;;;476181;52;935699;-69
2021/08/04 16:07:23;;;;;;;8.20;2.20;;;;;;;;;;478028;44;935748;-69
2021/08/04 16:07:55;;;;;;;5.07;2.00;;;;;;;;;;477714;44;935710;-70
2021/08/04 16:08:26;;;;;;;7.47;2.00;;;;;;;;;;478253;44;935788;-73
2021/08/04 16:08:58;;;;;;;10.13;2.70;;;;;;;;;;479541;52;935796;-73
2021/08/04 16:09:29;;;;;;;9.15;2.12;;;;;;;;;;477608;44;935670;-73
2021/08/04 16:10:01;;;;;;;12.05;2.30;;;;;;;;;;476115;52;936077;-73
2021/08/04 16:10:33;;;;;;;9.48;2.12;;;;;;;;;;477616;52;935828;-73
2021/08/04 16:11:05;;;;;;;6.93;2.60;;;;;;;;;;477714;44;938805;-73
2021/08/04 16:11:36;;;;;;;8.40;2.85;;;;;;;;;;478464;44;936147;-73
2021/08/04 16:12:08;;;;;;;8.07;2.58;;;;;;;;;;478359;44;935828;-68
2021/08/04 16:12:39;;;;;;;8.82;3.05;;;;;;;;;;479706;44;936208;-69
2021/08/04 16:13:11;;;;;;;6.60;2.92;;;;;;;;;;480006;44;935677;-69
2021/08/04 16:13:42;;;;;;;6.82;3.03;;;;;;;;;;479002;44;935901;-69
2021/08/04 16:14:14;;;;;;;4.10;2.55;;;;;;;;;;479278;52;936183;-70
2021/08/04 16:14:46;;;;;;;7.72;3.10;;;;;;;;;;479376;52;935786;-69
2021/08/04 16:15:17;;;;;;;7.82;3.40;;;;;;;;;;478635;52;935916;-69
2021/08/04 16:15:48;;;;;;;4.95;3.50;;;;;;;;;;479399;52;936197;-69
2021/08/04 16:16:20;;;;;;;7.28;3.25;;;;;;;;;;479537;44;937180;-69
2021/08/04 16:16:51;;;;;;;6.93;3.65;;;;;;;;;;478824;52;936112;-69
2021/08/04 16:17:23;;;;;;;5.12;3.20;;;;;;;;;;477487;44;935761;-70
2021/08/04 16:17:55;;;;;;;7.72;3.70;;;;;;;;;;478058;44;936204;-69
2021/08/04 16:18:30;;;;;;;8.77;3.42;;;;;;;;;;477439;52;935698;-71
2021/08/04 16:19:01;;;;;;;7.10;3.40;;;;;;;;;;476660;52;936138;-69
2021/08/04 16:19:33;;;;;;;5.55;3.40;;;;;;;;;;476108;45;935887;-70
2021/08/04 16:20:08;;;;;;;18.12;3.50;;;;;;;;;;475791;45;935923;-70
2021/08/04 16:20:40;;;;;;;8.40;3.17;;;;;;;;;;476198;44;935709;-71
2021/08/04 16:21:11;;;;;;;9.13;3.60;;;;;;;;;;478135;44;935656;-73
2021/08/04 16:21:43;;;;;;;6.28;3.45;;;;;;;;;;478279;44;935666;-73
2021/08/04 16:22:14;;;;;;;7.47;3.50;;;;;;;;;;478518;44;935742;-73
2021/08/04 16:22:46;;;;;;;9.50;3.37;;;;;;;;;;478787;44;935852;-75
2021/08/04 16:23:17;;;;;;;6.22;3.60;;;;;;;;;;478330;44;936190;-71
2021/08/04 16:23:49;;;;;;;6.32;3.30;;;;;;;;;;478251;44;935766;-71
2021/08/04 16:24:20;;;;;;;6.80;3.60;;;;;;;;;;478865;44;935685;-71
2021/08/04 16:24:52;;;;;;;13.15;3.58;;;;;;;;;;478810;44;935673;-72
2021/08/04 16:25:23;;;;;;;5.95;3.35;;;;;;;;;;476725;44;935766;-73
2021/08/04 16:25:55;;;;;;;6.47;3.30;;;;;;;;;;476810;52;935709;-73
2021/08/04 16:26:26;;;;;;;4.95;3.05;;;;;;;;;;477640;52;935816;-76
2021/08/04 16:26:58;;;;;;;5.75;3.22;;;;;;;;;;476335;52;936129;-75
2021/08/04 16:27:29;;;;;;;5.68;2.90;;;;;;;;;;478490;52;935651;-75
2021/08/04 16:28:01;;;;;;;7.40;3.05;;;;;;;;;;477832;44;935703;-73
2021/08/04 16:28:33;;;;;;;9.43;3.10;;;;;;;;;;479359;44;935926;-73
2021/08/04 16:29:04;;;;;;;5.62;3.40;;;;;;;;;;478272;44;935902;-69
2021/08/04 16:29:36;;;;;;;7.32;3.80;;;;;;;;;;478873;52;935630;-69
2021/08/04 16:30:09;;;;;;;5.30;3.62;;;;;;;;;;477781;52;936044;-69
2021/08/04 16:30:41;;;;;;;4.55;3.15;;;;;;;;;;476730;44;935720;-70
2021/08/04 16:31:12;;;;;;;6.80;3.28;;;;;;;;;;476259;44;935657;-70
2021/08/04 16:31:44;;;;;;;5.12;2.95;;;;;;;;;;476597;44;935773;-74
2021/08/04 16:32:17;;;;;;;5.93;3.08;;;;;;;;;;478025;44;935851;-72
2021/08/04 16:32:48;;;;;;;5.25;3.05;;;;;;;;;;477729;52;935766;-72
2021/08/04 16:33:20;;;;;;;6.18;2.90;;;;;;;;;;477815;44;936589;-74
